createdAt,value
2022-09-03T00:01:17.319Z,50.5
2022-09-03T00:16:27.059Z,50.7
2022-09-03T00:31:37.220Z,50.9
2022-09-03T00:46:46.348Z,51.1
2022-09-03T01:01:56.614Z,51.5
2022-09-03T01:17:09.154Z,51.6
2022-09-03T01:32:20.681Z,51.5
2022-09-03T01:47:31.138Z,51.6
2022-09-03T02:02:40.576Z,51.6
2022-09-03T02:17:49.837Z,51.7
2022-09-03T02:32:59.346Z,51.8
2022-09-03T02:48:08.475Z,51.8
2022-09-03T03:03:17.616Z,51.9
2022-09-03T03:18:27.017Z,52
2022-09-03T03:33:36.013Z,52.1
2022-09-03T03:48:46.477Z,52.2
2022-09-03T04:03:57.010Z,52.4
2022-09-03T04:19:06.151Z,52.5
2022-09-03T04:34:15.284Z,52.6
2022-09-03T04:49:24.783Z,52.6
2022-09-03T05:04:34.333Z,52.7
2022-09-03T05:19:43.616Z,52.8
2022-09-03T05:34:52.926Z,52.8
2022-09-03T05:50:01.987Z,52.8
2022-09-03T06:05:14.262Z,52.7
2022-09-03T06:22:41.560Z,53.1
2022-09-03T06:37:52.377Z,53.3
2022-09-03T06:53:01.759Z,53
2022-09-03T07:08:11.919Z,52.9
2022-09-03T07:23:21.599Z,52.8
2022-09-03T07:38:31.861Z,52.6
2022-09-03T07:53:41.238Z,52.4
2022-09-03T08:08:50.738Z,52.2
2022-09-03T08:24:00.097Z,52
2022-09-03T08:39:09.368Z,51.8
2022-09-03T08:54:19.671Z,51.6
2022-09-03T09:09:31.645Z,51.4
2022-09-03T09:24:41.437Z,51.1
2022-09-03T09:39:51.817Z,50.8
2022-09-03T09:55:02.278Z,50.9
2022-09-03T10:10:11.571Z,50.1
2022-09-03T10:25:21.060Z,49.7
2022-09-03T10:40:31.438Z,49.4
2022-09-03T10:55:41.599Z,49.2
2022-09-03T11:10:51.649Z,48.8
2022-09-03T11:26:00.784Z,48.4
2022-09-03T11:41:10.446Z,47.6
2022-09-03T11:56:20.690Z,47.6
2022-09-03T12:11:31.776Z,44.7
2022-09-03T12:26:42.213Z,44.5
2022-09-03T12:41:53.533Z,45.1
2022-09-03T12:57:02.927Z,44
2022-09-03T13:12:12.558Z,43.7
2022-09-03T13:27:22.424Z,43.3
2022-09-03T13:42:32.511Z,42.8
2022-09-03T13:57:42.095Z,42.7
2022-09-03T14:12:51.746Z,42.3
2022-09-03T14:28:01.889Z,41.7
2022-09-03T14:43:14.708Z,42.1
2022-09-03T14:58:23.231Z,42.5
2022-09-03T15:13:34.134Z,41.5
2022-09-03T15:28:46.192Z,41.8
2022-09-03T15:43:57.252Z,42.9
2022-09-03T15:59:06.406Z,43.6
2022-09-03T16:14:15.205Z,44
2022-09-03T16:29:27.436Z,44.1
2022-09-03T16:44:36.561Z,44.3
2022-09-03T16:59:46.152Z,44.3
2022-09-03T17:14:55.440Z,44.4
2022-09-03T17:30:04.459Z,44.5
2022-09-03T17:45:13.660Z,45
2022-09-03T18:00:22.735Z,44.7
2022-09-03T18:15:32.677Z,44.9
2022-09-03T18:30:42.296Z,45
2022-09-03T18:48:05.627Z,45
2022-09-03T19:03:18.994Z,45.2
2022-09-03T19:18:27.758Z,44.9
2022-09-03T19:33:37.419Z,45.4
2022-09-03T19:48:46.654Z,45.6
2022-09-03T20:05:25.851Z,43.9
2022-09-03T20:20:35.620Z,45.3
2022-09-03T20:35:44.461Z,45.7
2022-09-03T20:50:54.439Z,45.9
2022-09-03T21:06:03.126Z,46.1
2022-09-03T21:21:12.487Z,46.3
2022-09-03T21:36:24.344Z,46.4
2022-09-03T21:51:33.878Z,46.6
2022-09-03T22:06:43.304Z,46.8
2022-09-03T22:21:52.654Z,47
2022-09-03T22:37:01.375Z,47.5
2022-09-03T22:52:10.817Z,47.4
2022-09-03T23:07:20.197Z,47.5
2022-09-03T23:22:32.518Z,47.6
2022-09-03T23:37:41.251Z,47.8
2022-09-03T23:52:50.745Z,48.1
